sensor_id;sensor_type;location;lat;lon;timestamp;pressure;altitude;pressure_sealevel;temperature;humidity
12203;BME280;6164;42.178;24.622;2023-05-29T00:01:51;99391.09;;;16.97;100.00
12203;BME280;6164;42.178;24.622;2023-05-29T00:04:18;99402.75;;;17.03;100.00
12203;BME280;6164;42.178;24.622;2023-05-29T00:06:48;99388.22;;;16.99;100.00
12203;BME280;6164;42.178;24.622;2023-05-29T00:09:16;99369.19;;;16.89;100.00
12203;BME280;6164;42.178;24.622;2023-05-29T00:11:43;99381.44;;;17.03;100.00
12203;BME280;6164;42.178;24.622;2023-05-29T00:14:12;99383.06;;;17.04;100.00
12203;BME280;6164;42.178;24.622;2023-05-29T00:16:39;99391.28;;;17.02;100.00
12203;BME280;6164;42.178;24.622;2023-05-29T00:19:06;99383.69;;;16.99;100.00
12203;BME280;6164;42.178;24.622;2023-05-29T00:21:34;99394.75;;;17.03;100.00
12203;BME280;6164;42.178;24.622;2023-05-29T00:24:02;99389.22;;;17.04;100.00
12203;BME280;6164;42.178;24.622;2023-05-29T00:26:29;99392.97;;;16.90;100.00
12203;BME280;6164;42.178;24.622;2023-05-29T00:28:56;99390.09;;;16.92;100.00
12203;BME280;6164;42.178;24.622;2023-05-29T00:31:22;99384.13;;;16.96;100.00
12203;BME280;6164;42.178;24.622;2023-05-29T00:33:50;99386.53;;;17.04;100.00
12203;BME280;6164;42.178;24.622;2023-05-29T00:36:17;99384.84;;;17.10;100.00
12203;BME280;6164;42.178;24.622;2023-05-29T00:38:44;99387.13;;;17.13;100.00
12203;BME280;6164;42.178;24.622;2023-05-29T00:41:14;99387.50;;;17.10;100.00
12203;BME280;6164;42.178;24.622;2023-05-29T00:43:41;99368.34;;;16.95;100.00
12203;BME280;6164;42.178;24.622;2023-05-29T00:46:09;99381.66;;;17.01;100.00
12203;BME280;6164;42.178;24.622;2023-05-29T00:48:36;99377.31;;;17.00;100.00
12203;BME280;6164;42.178;24.622;2023-05-29T00:51:03;99386.38;;;16.99;100.00
12203;BME280;6164;42.178;24.622;2023-05-29T00:53:30;99379.38;;;16.98;100.00
12203;BME280;6164;42.178;24.622;2023-05-29T00:55:58;99375.69;;;16.99;100.00
12203;BME280;6164;42.178;24.622;2023-05-29T00:58:27;99367.91;;;16.98;100.00
12203;BME280;6164;42.178;24.622;2023-05-29T01:00:54;99364.28;;;16.86;100.00
12203;BME280;6164;42.178;24.622;2023-05-29T01:03:21;99364.75;;;16.76;100.00
12203;BME280;6164;42.178;24.622;2023-05-29T01:05:49;99369.25;;;16.76;100.00
12203;BME280;6164;42.178;24.622;2023-05-29T01:08:17;99369.72;;;16.66;100.00
12203;BME280;6164;42.178;24.622;2023-05-29T01:10:44;99373.28;;;16.54;100.00
12203;BME280;6164;42.178;24.622;2023-05-29T01:13:13;99371.00;;;16.44;100.00
12203;BME280;6164;42.178;24.622;2023-05-29T01:15:51;99381.09;;;16.42;100.00
12203;BME280;6164;42.178;24.622;2023-05-29T01:18:32;99374.72;;;16.50;100.00
12203;BME280;6164;42.178;24.622;2023-05-29T01:21:06;99351.56;;;16.44;100.00
12203;BME280;6164;42.178;24.622;2023-05-29T01:24:03;99379.78;;;16.64;100.00
12203;BME280;6164;42.178;24.622;2023-05-29T01:26:55;99376.06;;;16.72;100.00
12203;BME280;6164;42.178;24.622;2023-05-29T01:29:26;99376.69;;;16.67;100.00
12203;BME280;6164;42.178;24.622;2023-05-29T01:31:54;99365.19;;;16.73;100.00
12203;BME280;6164;42.178;24.622;2023-05-29T01:34:22;99364.53;;;16.78;100.00
12203;BME280;6164;42.178;24.622;2023-05-29T01:36:49;99368.78;;;16.85;100.00
12203;BME280;6164;42.178;24.622;2023-05-29T01:39:16;99370.88;;;16.83;100.00
12203;BME280;6164;42.178;24.622;2023-05-29T01:41:45;99360.63;;;16.80;100.00
12203;BME280;6164;42.178;24.622;2023-05-29T01:44:14;99350.47;;;16.64;100.00
12203;BME280;6164;42.178;24.622;2023-05-29T01:46:42;99354.16;;;16.63;100.00
12203;BME280;6164;42.178;24.622;2023-05-29T01:49:11;99354.97;;;16.70;100.00
12203;BME280;6164;42.178;24.622;2023-05-29T01:51:38;99357.19;;;16.73;100.00
12203;BME280;6164;42.178;24.622;2023-05-29T01:54:06;99358.59;;;16.76;100.00
12203;BME280;6164;42.178;24.622;2023-05-29T01:56:33;99363.31;;;16.74;100.00
12203;BME280;6164;42.178;24.622;2023-05-29T01:59:01;99359.88;;;16.73;100.00
12203;BME280;6164;42.178;24.622;2023-05-29T02:01:31;99352.50;;;16.62;100.00
12203;BME280;6164;42.178;24.622;2023-05-29T02:03:57;99354.13;;;16.70;100.00
12203;BME280;6164;42.178;24.622;2023-05-29T02:06:24;99350.44;;;16.71;100.00
12203;BME280;6164;42.178;24.622;2023-05-29T02:08:51;99356.97;;;16.75;100.00
12203;BME280;6164;42.178;24.622;2023-05-29T02:11:18;99355.78;;;16.64;100.00
12203;BME280;6164;42.178;24.622;2023-05-29T02:13:46;99356.06;;;16.50;100.00
12203;BME280;6164;42.178;24.622;2023-05-29T02:16:13;99362.63;;;16.41;100.00
12203;BME280;6164;42.178;24.622;2023-05-29T02:18:41;99366.50;;;16.45;100.00
12203;BME280;6164;42.178;24.622;2023-05-29T02:21:08;99364.88;;;16.44;100.00
12203;BME280;6164;42.178;24.622;2023-05-29T02:23:35;99369.81;;;16.40;100.00
12203;BME280;6164;42.178;24.622;2023-05-29T02:26:02;99369.59;;;16.48;100.00
12203;BME280;6164;42.178;24.622;2023-05-29T02:28:29;99370.81;;;16.59;100.00
12203;BME280;6164;42.178;24.622;2023-05-29T02:30:55;99365.44;;;16.65;100.00
12203;BME280;6164;42.178;24.622;2023-05-29T02:33:22;99356.00;;;16.63;100.00
12203;BME280;6164;42.178;24.622;2023-05-29T02:35:50;99323.69;;;16.40;100.00
12203;BME280;6164;42.178;24.622;2023-05-29T02:38:17;99362.66;;;16.47;100.00
12203;BME280;6164;42.178;24.622;2023-05-29T02:40:44;99365.09;;;16.42;100.00
12203;BME280;6164;42.178;24.622;2023-05-29T02:43:12;99367.38;;;16.39;100.00
12203;BME280;6164;42.178;24.622;2023-05-29T02:45:39;99364.47;;;16.40;100.00
12203;BME280;6164;42.178;24.622;2023-05-29T02:48:06;99369.63;;;16.35;100.00
12203;BME280;6164;42.178;24.622;2023-05-29T02:50:33;99378.22;;;16.50;100.00
12203;BME280;6164;42.178;24.622;2023-05-29T02:53:01;99375.91;;;16.60;100.00
12203;BME280;6164;42.178;24.622;2023-05-29T02:55:28;99374.03;;;16.61;100.00
12203;BME280;6164;42.178;24.622;2023-05-29T02:57:57;99370.53;;;16.73;100.00
12203;BME280;6164;42.178;24.622;2023-05-29T03:00:25;99369.44;;;16.81;100.00
12203;BME280;6164;42.178;24.622;2023-05-29T03:02:53;99375.13;;;16.91;100.00
12203;BME280;6164;42.178;24.622;2023-05-29T03:05:20;99369.16;;;16.95;100.00
12203;BME280;6164;42.178;24.622;2023-05-29T03:07:47;99375.28;;;17.02;100.00
12203;BME280;6164;42.178;24.622;2023-05-29T03:10:15;99379.72;;;17.08;100.00
12203;BME280;6164;42.178;24.622;2023-05-29T03:12:42;99376.94;;;16.97;100.00
12203;BME280;6164;42.178;24.622;2023-05-29T03:15:09;99379.06;;;16.82;100.00
12203;BME280;6164;42.178;24.622;2023-05-29T03:17:36;99391.84;;;16.73;100.00
12203;BME280;6164;42.178;24.622;2023-05-29T03:20:04;99394.72;;;16.72;100.00
12203;BME280;6164;42.178;24.622;2023-05-29T03:22:33;99389.38;;;16.78;100.00
12203;BME280;6164;42.178;24.622;2023-05-29T03:25:01;99387.69;;;16.84;100.00
12203;BME280;6164;42.178;24.622;2023-05-29T03:27:30;99400.16;;;16.90;100.00
12203;BME280;6164;42.178;24.622;2023-05-29T03:29:58;99404.03;;;16.94;100.00
12203;BME280;6164;42.178;24.622;2023-05-29T03:32:25;99398.47;;;16.95;100.00
12203;BME280;6164;42.178;24.622;2023-05-29T03:34:52;99396.81;;;17.01;100.00
12203;BME280;6164;42.178;24.622;2023-05-29T03:37:18;99401.50;;;17.05;100.00
12203;BME280;6164;42.178;24.622;2023-05-29T03:39:45;99402.13;;;17.07;100.00
12203;BME280;6164;42.178;24.622;2023-05-29T03:42:13;99406.66;;;17.00;100.00
12203;BME280;6164;42.178;24.622;2023-05-29T03:44:41;99406.41;;;17.08;100.00
12203;BME280;6164;42.178;24.622;2023-05-29T03:47:08;99401.94;;;17.02;100.00
12203;BME280;6164;42.178;24.622;2023-05-29T03:49:35;99400.97;;;16.90;100.00
12203;BME280;6164;42.178;24.622;2023-05-29T03:52:01;99402.47;;;16.80;100.00
12203;BME280;6164;42.178;24.622;2023-05-29T03:54:28;99400.25;;;16.77;100.00
12203;BME280;6164;42.178;24.622;2023-05-29T03:56:55;99410.03;;;16.83;100.00
12203;BME280;6164;42.178;24.622;2023-05-29T03:59:22;99403.28;;;16.80;100.00
12203;BME280;6164;42.178;24.622;2023-05-29T04:01:50;99409.84;;;16.84;100.00
12203;BME280;6164;42.178;24.622;2023-05-29T04:04:16;99411.28;;;16.80;100.00
12203;BME280;6164;42.178;24.622;2023-05-29T04:06:43;99408.06;;;16.72;100.00
12203;BME280;6164;42.178;24.622;2023-05-29T04:09:10;99407.47;;;16.63;100.00
12203;BME280;6164;42.178;24.622;2023-05-29T04:11:36;99407.72;;;16.55;100.00
12203;BME280;6164;42.178;24.622;2023-05-29T04:14:04;99415.28;;;16.58;100.00
12203;BME280;6164;42.178;24.622;2023-05-29T04:16:31;99414.25;;;16.53;100.00
12203;BME280;6164;42.178;24.622;2023-05-29T04:18:59;99414.47;;;16.51;100.00
12203;BME280;6164;42.178;24.622;2023-05-29T04:21:26;99417.72;;;16.66;100.00
12203;BME280;6164;42.178;24.622;2023-05-29T04:23:53;99414.59;;;16.76;100.00
12203;BME280;6164;42.178;24.622;2023-05-29T04:26:21;99420.50;;;16.84;100.00
12203;BME280;6164;42.178;24.622;2023-05-29T04:28:54;99414.91;;;16.92;100.00
12203;BME280;6164;42.178;24.622;2023-05-29T04:31:23;99408.78;;;16.85;100.00
12203;BME280;6164;42.178;24.622;2023-05-29T04:33:51;99416.97;;;16.90;100.00
12203;BME280;6164;42.178;24.622;2023-05-29T04:36:22;99386.72;;;16.72;100.00
12203;BME280;6164;42.178;24.622;2023-05-29T04:38:51;99435.03;;;16.95;100.00
12203;BME280;6164;42.178;24.622;2023-05-29T04:41:18;99433.16;;;16.95;100.00
12203;BME280;6164;42.178;24.622;2023-05-29T04:43:44;99433.59;;;16.92;100.00
12203;BME280;6164;42.178;24.622;2023-05-29T04:46:11;99442.78;;;17.03;100.00
12203;BME280;6164;42.178;24.622;2023-05-29T04:48:40;99439.50;;;17.01;100.00
12203;BME280;6164;42.178;24.622;2023-05-29T04:51:07;99432.84;;;17.10;100.00
12203;BME280;6164;42.178;24.622;2023-05-29T04:53:37;99437.56;;;17.15;100.00
12203;BME280;6164;42.178;24.622;2023-05-29T04:56:05;99441.69;;;17.10;100.00
12203;BME280;6164;42.178;24.622;2023-05-29T04:58:32;99434.28;;;17.13;100.00
12203;BME280;6164;42.178;24.622;2023-05-29T05:00:59;99438.41;;;17.08;100.00
12203;BME280;6164;42.178;24.622;2023-05-29T05:03:31;99442.22;;;17.26;100.00
12203;BME280;6164;42.178;24.622;2023-05-29T05:05:59;99443.50;;;17.23;100.00
12203;BME280;6164;42.178;24.622;2023-05-29T05:08:27;99448.94;;;17.35;100.00
12203;BME280;6164;42.178;24.622;2023-05-29T05:10:55;99447.56;;;17.26;100.00
12203;BME280;6164;42.178;24.622;2023-05-29T05:13:22;99445.19;;;17.11;100.00
12203;BME280;6164;42.178;24.622;2023-05-29T05:15:49;99450.72;;;17.09;100.00
12203;BME280;6164;42.178;24.622;2023-05-29T05:18:15;99456.50;;;17.06;100.00
12203;BME280;6164;42.178;24.622;2023-05-29T05:20:42;99460.44;;;16.97;100.00
12203;BME280;6164;42.178;24.622;2023-05-29T05:23:09;99468.97;;;17.13;100.00
12203;BME280;6164;42.178;24.622;2023-05-29T05:25:36;99460.28;;;17.24;100.00
12203;BME280;6164;42.178;24.622;2023-05-29T05:28:05;99458.06;;;17.21;100.00
12203;BME280;6164;42.178;24.622;2023-05-29T05:30:31;99459.91;;;17.20;100.00
12203;BME280;6164;42.178;24.622;2023-05-29T05:32:58;99471.19;;;17.22;100.00
12203;BME280;6164;42.178;24.622;2023-05-29T05:35:25;99449.50;;;17.05;100.00
12203;BME280;6164;42.178;24.622;2023-05-29T05:37:51;99468.53;;;17.16;100.00
12203;BME280;6164;42.178;24.622;2023-05-29T05:40:18;99472.47;;;17.13;100.00
12203;BME280;6164;42.178;24.622;2023-05-29T05:42:45;99472.47;;;17.13;100.00
12203;BME280;6164;42.178;24.622;2023-05-29T05:45:13;99473.22;;;17.20;100.00
12203;BME280;6164;42.178;24.622;2023-05-29T05:47:40;99474.50;;;17.18;100.00
12203;BME280;6164;42.178;24.622;2023-05-29T05:50:07;99483.47;;;17.30;100.00
12203;BME280;6164;42.178;24.622;2023-05-29T05:52:34;99461.66;;;17.39;100.00
12203;BME280;6164;42.178;24.622;2023-05-29T05:55:01;99472.03;;;17.54;100.00
12203;BME280;6164;42.178;24.622;2023-05-29T05:57:28;99464.25;;;17.52;100.00
12203;BME280;6164;42.178;24.622;2023-05-29T05:59:57;99467.75;;;17.53;100.00
12203;BME280;6164;42.178;24.622;2023-05-29T06:02:26;99465.66;;;17.55;100.00
12203;BME280;6164;42.178;24.622;2023-05-29T06:04:52;99473.78;;;17.66;100.00
12203;BME280;6164;42.178;24.622;2023-05-29T06:07:19;99463.88;;;17.73;100.00
12203;BME280;6164;42.178;24.622;2023-05-29T06:09:46;99470.41;;;17.84;100.00
12203;BME280;6164;42.178;24.622;2023-05-29T06:12:12;99459.31;;;18.05;100.00
12203;BME280;6164;42.178;24.622;2023-05-29T06:14:39;99450.25;;;18.06;100.00
12203;BME280;6164;42.178;24.622;2023-05-29T06:17:06;99464.44;;;18.06;100.00
12203;BME280;6164;42.178;24.622;2023-05-29T06:19:34;99464.63;;;18.29;100.00
12203;BME280;6164;42.178;24.622;2023-05-29T06:22:00;99475.59;;;18.46;100.00
12203;BME280;6164;42.178;24.622;2023-05-29T06:24:27;99474.69;;;18.70;100.00
12203;BME280;6164;42.178;24.622;2023-05-29T06:26:54;99464.84;;;18.71;100.00
12203;BME280;6164;42.178;24.622;2023-05-29T06:29:23;99463.91;;;18.95;100.00
12203;BME280;6164;42.178;24.622;2023-05-29T06:31:50;99455.97;;;18.88;100.00
12203;BME280;6164;42.178;24.622;2023-05-29T06:34:17;99450.09;;;18.80;100.00
12203;BME280;6164;42.178;24.622;2023-05-29T06:36:45;99448.41;;;18.85;100.00
12203;BME280;6164;42.178;24.622;2023-05-29T06:39:13;99404.78;;;18.85;100.00
12203;BME280;6164;42.178;24.622;2023-05-29T06:41:40;99444.44;;;19.06;100.00
12203;BME280;6164;42.178;24.622;2023-05-29T06:44:07;99449.25;;;19.15;100.00
12203;BME280;6164;42.178;24.622;2023-05-29T06:46:34;99444.97;;;19.26;100.00
12203;BME280;6164;42.178;24.622;2023-05-29T06:49:00;99433.00;;;19.28;100.00
12203;BME280;6164;42.178;24.622;2023-05-29T06:51:27;99441.78;;;19.35;100.00
12203;BME280;6164;42.178;24.622;2023-05-29T06:53:55;99450.00;;;19.52;100.00
12203;BME280;6164;42.178;24.622;2023-05-29T06:56:22;99450.72;;;19.71;100.00
12203;BME280;6164;42.178;24.622;2023-05-29T06:58:49;99441.06;;;19.81;100.00
12203;BME280;6164;42.178;24.622;2023-05-29T07:01:15;99448.88;;;19.94;100.00
12203;BME280;6164;42.178;24.622;2023-05-29T07:03:42;99452.16;;;19.96;100.00
12203;BME280;6164;42.178;24.622;2023-05-29T07:06:09;99450.00;;;20.16;100.00
12203;BME280;6164;42.178;24.622;2023-05-29T07:08:36;99447.50;;;20.26;100.00
12203;BME280;6164;42.178;24.622;2023-05-29T07:11:04;99444.13;;;20.08;100.00
12203;BME280;6164;42.178;24.622;2023-05-29T07:13:30;99445.53;;;20.22;100.00
12203;BME280;6164;42.178;24.622;2023-05-29T07:15:57;99445.75;;;20.43;100.00
12203;BME280;6164;42.178;24.622;2023-05-29T07:18:24;99446.31;;;20.57;100.00
12203;BME280;6164;42.178;24.622;2023-05-29T07:20:50;99436.56;;;20.39;100.00
12203;BME280;6164;42.178;24.622;2023-05-29T07:23:17;99439.03;;;20.29;100.00
12203;BME280;6164;42.178;24.622;2023-05-29T07:25:44;99438.06;;;20.35;100.00
12203;BME280;6164;42.178;24.622;2023-05-29T07:28:12;99433.53;;;20.47;100.00
12203;BME280;6164;42.178;24.622;2023-05-29T07:30:38;99446.94;;;20.36;100.00
12203;BME280;6164;42.178;24.622;2023-05-29T07:33:05;99445.28;;;20.35;100.00
12203;BME280;6164;42.178;24.622;2023-05-29T07:35:32;99427.22;;;20.42;100.00
12203;BME280;6164;42.178;24.622;2023-05-29T07:37:59;99443.75;;;20.62;100.00
12203;BME280;6164;42.178;24.622;2023-05-29T07:40:26;99439.09;;;20.69;100.00
12203;BME280;6164;42.178;24.622;2023-05-29T07:42:52;99449.50;;;20.93;100.00
12203;BME280;6164;42.178;24.622;2023-05-29T07:45:20;99452.09;;;21.00;100.00
12203;BME280;6164;42.178;24.622;2023-05-29T07:47:47;99452.75;;;20.95;100.00
12203;BME280;6164;42.178;24.622;2023-05-29T07:50:15;99437.25;;;20.98;100.00
12203;BME280;6164;42.178;24.622;2023-05-29T07:52:42;99417.25;;;20.77;100.00
12203;BME280;6164;42.178;24.622;2023-05-29T07:55:09;99446.44;;;21.13;100.00
12203;BME280;6164;42.178;24.622;2023-05-29T07:57:35;99446.56;;;21.35;100.00
12203;BME280;6164;42.178;24.622;2023-05-29T08:00:03;99441.47;;;21.50;100.00
12203;BME280;6164;42.178;24.622;2023-05-29T08:02:35;99443.16;;;21.84;100.00
12203;BME280;6164;42.178;24.622;2023-05-29T08:05:02;99438.81;;;21.99;100.00
12203;BME280;6164;42.178;24.622;2023-05-29T08:07:29;99447.13;;;22.14;100.00
12203;BME280;6164;42.178;24.622;2023-05-29T08:09:57;99445.31;;;22.37;100.00
12203;BME280;6164;42.178;24.622;2023-05-29T08:12:24;99449.84;;;22.53;100.00
12203;BME280;6164;42.178;24.622;2023-05-29T08:14:50;99436.28;;;22.64;100.00
12203;BME280;6164;42.178;24.622;2023-05-29T08:17:17;99419.13;;;22.70;100.00
12203;BME280;6164;42.178;24.622;2023-05-29T08:19:45;99434.66;;;22.85;100.00
12203;BME280;6164;42.178;24.622;2023-05-29T08:22:13;99436.66;;;22.94;100.00
12203;BME280;6164;42.178;24.622;2023-05-29T08:24:41;99435.97;;;23.04;100.00
12203;BME280;6164;42.178;24.622;2023-05-29T08:27:07;99426.00;;;23.04;100.00
12203;BME280;6164;42.178;24.622;2023-05-29T08:29:34;99434.53;;;23.23;100.00
12203;BME280;6164;42.178;24.622;2023-05-29T08:32:02;99427.97;;;23.35;100.00
12203;BME280;6164;42.178;24.622;2023-05-29T08:34:29;99425.38;;;23.46;100.00
12203;BME280;6164;42.178;24.622;2023-05-29T08:36:57;99423.31;;;23.58;100.00
12203;BME280;6164;42.178;24.622;2023-05-29T08:39:24;99422.63;;;23.67;100.00
12203;BME280;6164;42.178;24.622;2023-05-29T08:41:59;99429.13;;;23.76;100.00
12203;BME280;6164;42.178;24.622;2023-05-29T08:44:29;99417.88;;;23.84;96.96
12203;BME280;6164;42.178;24.622;2023-05-29T08:46:57;99384.91;;;23.72;97.23
12203;BME280;6164;42.178;24.622;2023-05-29T08:49:29;99414.22;;;23.95;96.81
12203;BME280;6164;42.178;24.622;2023-05-29T08:52:09;99411.63;;;24.10;95.66
12203;BME280;6164;42.178;24.622;2023-05-29T08:54:36;99404.94;;;24.18;95.55
12203;BME280;6164;42.178;24.622;2023-05-29T08:57:03;99401.97;;;24.19;96.79
12203;BME280;6164;42.178;24.622;2023-05-29T08:59:31;99408.44;;;24.13;96.42
12203;BME280;6164;42.178;24.622;2023-05-29T09:01:59;99403.50;;;24.05;96.41
12203;BME280;6164;42.178;24.622;2023-05-29T09:04:28;99400.53;;;24.02;99.37
12203;BME280;6164;42.178;24.622;2023-05-29T09:06:57;99408.44;;;24.13;95.66
12203;BME280;6164;42.178;24.622;2023-05-29T09:09:24;99399.72;;;24.01;94.69
12203;BME280;6164;42.178;24.622;2023-05-29T09:11:52;99406.00;;;24.17;97.96
12203;BME280;6164;42.178;24.622;2023-05-29T09:14:35;99404.19;;;24.27;97.27
12203;BME280;6164;42.178;24.622;2023-05-29T09:17:03;99403.91;;;24.29;95.36
12203;BME280;6164;42.178;24.622;2023-05-29T09:19:30;99396.38;;;24.31;95.98
12203;BME280;6164;42.178;24.622;2023-05-29T09:22:02;99372.28;;;24.14;94.38
12203;BME280;6164;42.178;24.622;2023-05-29T09:24:33;99395.03;;;24.33;94.36
12203;BME280;6164;42.178;24.622;2023-05-29T09:27:02;99382.56;;;24.22;97.14
12203;BME280;6164;42.178;24.622;2023-05-29T09:29:31;99395.53;;;24.25;97.59
12203;BME280;6164;42.178;24.622;2023-05-29T09:31:58;99391.16;;;24.14;96.87
12203;BME280;6164;42.178;24.622;2023-05-29T09:34:25;99385.22;;;24.12;97.68
12203;BME280;6164;42.178;24.622;2023-05-29T09:36:52;99397.56;;;24.03;96.41
12203;BME280;6164;42.178;24.622;2023-05-29T09:39:23;99399.44;;;24.03;96.43
12203;BME280;6164;42.178;24.622;2023-05-29T09:41:50;99400.25;;;23.98;96.69
12203;BME280;6164;42.178;24.622;2023-05-29T09:44:20;99400.53;;;24.02;98.56
12203;BME280;6164;42.178;24.622;2023-05-29T09:46:48;99398.88;;;24.01;100.00
12203;BME280;6164;42.178;24.622;2023-05-29T09:49:15;99396.78;;;24.08;97.75
12203;BME280;6164;42.178;24.622;2023-05-29T09:51:45;99399.25;;;24.14;98.26
12203;BME280;6164;42.178;24.622;2023-05-29T09:54:14;99385.22;;;24.12;96.70
12203;BME280;6164;42.178;24.622;2023-05-29T09:56:42;99373.88;;;24.15;96.82
12203;BME280;6164;42.178;24.622;2023-05-29T09:59:10;99389.13;;;24.36;97.56
12203;BME280;6164;42.178;24.622;2023-05-29T10:01:39;99376.69;;;24.30;95.96
12203;BME280;6164;42.178;24.622;2023-05-29T10:04:07;99381.25;;;24.25;96.23
12203;BME280;6164;42.178;24.622;2023-05-29T10:06:35;99379.38;;;24.30;94.29
12203;BME280;6164;42.178;24.622;2023-05-29T10:09:05;99377.03;;;24.44;92.86
12203;BME280;6164;42.178;24.622;2023-05-29T10:11:34;99373.03;;;24.61;93.45
12203;BME280;6164;42.178;24.622;2023-05-29T10:14:03;99366.41;;;24.79;91.15
12203;BME280;6164;42.178;24.622;2023-05-29T10:16:34;99370.75;;;24.95;90.46
12203;BME280;6164;42.178;24.622;2023-05-29T10:19:06;99376.41;;;24.94;84.74
12203;BME280;6164;42.178;24.622;2023-05-29T10:21:36;99373.75;;;25.09;90.01
12203;BME280;6164;42.178;24.622;2023-05-29T10:24:07;99375.69;;;25.28;87.43
12203;BME280;6164;42.178;24.622;2023-05-29T10:26:35;99362.22;;;25.48;89.04
12203;BME280;6164;42.178;24.622;2023-05-29T10:29:09;99372.22;;;25.53;81.70
12203;BME280;6164;42.178;24.622;2023-05-29T10:31:46;99361.91;;;25.80;84.49
12203;BME280;6164;42.178;24.622;2023-05-29T10:34:23;99333.81;;;25.76;85.94
12203;BME280;6164;42.178;24.622;2023-05-29T10:37:00;99358.41;;;25.79;80.35
12203;BME280;6164;42.178;24.622;2023-05-29T10:39:28;99355.69;;;25.84;78.43
12203;BME280;6164;42.178;24.622;2023-05-29T10:41:55;99354.63;;;25.70;74.50
12203;BME280;6164;42.178;24.622;2023-05-29T10:44:40;99361.09;;;25.89;72.96
12203;BME280;6164;42.178;24.622;2023-05-29T10:47:07;99344.59;;;25.91;76.90
12203;BME280;6164;42.178;24.622;2023-05-29T10:49:36;99344.03;;;26.19;78.81
12203;BME280;6164;42.178;24.622;2023-05-29T10:52:04;99348.22;;;26.50;75.85
12203;BME280;6164;42.178;24.622;2023-05-29T10:54:51;99345.94;;;26.77;74.94
12203;BME280;6164;42.178;24.622;2023-05-29T10:57:22;99344.19;;;27.01;71.52
12203;BME280;6164;42.178;24.622;2023-05-29T10:59:59;99350.22;;;26.93;68.78
12203;BME280;6164;42.178;24.622;2023-05-29T11:02:26;99340.47;;;26.87;72.19
12203;BME280;6164;42.178;24.622;2023-05-29T11:05:18;99337.09;;;26.57;72.62
12203;BME280;6164;42.178;24.622;2023-05-29T11:07:58;99331.78;;;26.90;70.22
12203;BME280;6164;42.178;24.622;2023-05-29T11:10:54;99325.34;;;27.20;70.54
12203;BME280;6164;42.178;24.622;2023-05-29T11:13:26;99329.66;;;27.60;65.95
12203;BME280;6164;42.178;24.622;2023-05-29T11:16:16;99340.59;;;27.50;64.29
12203;BME280;6164;42.178;24.622;2023-05-29T11:18:47;99337.28;;;27.58;65.97
12203;BME280;6164;42.178;24.622;2023-05-29T11:21:31;99319.13;;;27.53;65.58
12203;BME280;6164;42.178;24.622;2023-05-29T11:23:59;99336.72;;;27.61;65.09
12203;BME280;6164;42.178;24.622;2023-05-29T11:26:31;99335.81;;;27.37;63.54
12203;BME280;6164;42.178;24.622;2023-05-29T11:28:59;99324.06;;;27.12;67.05
12203;BME280;6164;42.178;24.622;2023-05-29T11:31:28;99319.53;;;26.44;70.38
12203;BME280;6164;42.178;24.622;2023-05-29T11:33:59;99326.72;;;26.00;70.76
12203;BME280;6164;42.178;24.622;2023-05-29T11:36:31;99299.19;;;25.83;76.59
12203;BME280;6164;42.178;24.622;2023-05-29T11:38:58;99312.44;;;25.84;76.42
12203;BME280;6164;42.178;24.622;2023-05-29T11:41:25;99293.25;;;25.71;75.80
12203;BME280;6164;42.178;24.622;2023-05-29T11:43:59;99310.56;;;25.70;76.68
12203;BME280;6164;42.178;24.622;2023-05-29T11:46:29;99314.59;;;25.82;74.49
12203;BME280;6164;42.178;24.622;2023-05-29T11:48:58;99300.75;;;25.94;74.03
12203;BME280;6164;42.178;24.622;2023-05-29T11:51:25;99306.91;;;26.25;74.71
12203;BME280;6164;42.178;24.622;2023-05-29T11:53:52;99316.69;;;26.16;69.75
12203;BME280;6164;42.178;24.622;2023-05-29T11:56:23;99302.09;;;25.91;72.81
12203;BME280;6164;42.178;24.622;2023-05-29T11:58:50;99297.81;;;25.80;71.06
12203;BME280;6164;42.178;24.622;2023-05-29T12:01:20;99305.63;;;26.02;71.13
12203;BME280;6164;42.178;24.622;2023-05-29T12:03:50;99295.31;;;26.14;70.79
12203;BME280;6164;42.178;24.622;2023-05-29T12:06:30;99287.59;;;25.57;70.35
12203;BME280;6164;42.178;24.622;2023-05-29T12:08:58;99286.50;;;25.33;71.17
12203;BME280;6164;42.178;24.622;2023-05-29T12:11:26;99287.59;;;25.47;71.93
12203;BME280;6164;42.178;24.622;2023-05-29T12:13:56;99284.28;;;25.80;72.80
12203;BME280;6164;42.178;24.622;2023-05-29T12:16:23;99285.31;;;26.10;69.67
12203;BME280;6164;42.178;24.622;2023-05-29T12:18:52;99283.03;;;26.42;66.25
12203;BME280;6164;42.178;24.622;2023-05-29T12:21:21;99295.88;;;26.75;64.15
12203;BME280;6164;42.178;24.622;2023-05-29T12:23:48;99287.72;;;27.13;64.31
12203;BME280;6164;42.178;24.622;2023-05-29T12:26:15;99289.28;;;27.30;63.20
12203;BME280;6164;42.178;24.622;2023-05-29T12:28:43;99293.50;;;27.41;63.34
12203;BME280;6164;42.178;24.622;2023-05-29T12:31:10;99298.69;;;27.37;61.13
12203;BME280;6164;42.178;24.622;2023-05-29T12:33:42;99276.03;;;27.52;63.49
12203;BME280;6164;42.178;24.622;2023-05-29T12:36:13;99285.75;;;27.29;61.66
12203;BME280;6164;42.178;24.622;2023-05-29T12:38:47;99280.53;;;27.38;63.04
12203;BME280;6164;42.178;24.622;2023-05-29T12:41:27;99260.00;;;26.93;67.66
12203;BME280;6164;42.178;24.622;2023-05-29T12:43:54;99262.97;;;26.91;71.09
12203;BME280;6164;42.178;24.622;2023-05-29T12:46:25;99259.63;;;26.61;69.83
12203;BME280;6164;42.178;24.622;2023-05-29T12:48:53;99247.19;;;26.11;70.19
12203;BME280;6164;42.178;24.622;2023-05-29T12:51:25;99243.69;;;25.90;71.57
12203;BME280;6164;42.178;24.622;2023-05-29T12:53:51;99253.66;;;26.15;70.52
12203;BME280;6164;42.178;24.622;2023-05-29T12:56:21;99267.16;;;26.20;68.06
12203;BME280;6164;42.178;24.622;2023-05-29T12:58:49;99273.84;;;26.33;67.45
12203;BME280;6164;42.178;24.622;2023-05-29T13:01:16;99263.81;;;26.38;67.34